Página principal
METAR-TAF:

METAR-TAF

Aeroportos :

Vladivostok, Rússia

Aeroporto Internacional de Vladivostok

latitude: 43-07N, longitude: 131-56E, altura: 184 m

Observação actual do tempo

O boletim foi feito há 35 minutos, às 01:30 UTC
Vento 4 kt de es-nordeste, variando entre nor-nordeste e este
Temperatura 6°C
Humidade 42%
Pressão 1031 hPa
Visibilidade 10 km ou mais

METAR: UHWW 180130Z 06002MPS 030V100 9999 NSC 06/M06 Q1031 R25L/0///70 NOSIG RMK QFE772

Hora: 12:05 (02:05 UTC)

Previsão

O boletim foi feito há 3 horas e 15 minutos, às 22:50 UTC
Previsão válida de 18 às 00 UTC a 18 às 24 UTC
Vento 6 kt de oes-noroeste
Visibilidade 10 km ou mais
Tornando-se
de 18 às 01 UTC a 18 às 03 UTC
Vento 6 kt de su-sudoeste
Nuvens dispersasa uma altura de 3000 ft

TAF: UHWW 172250Z 1800/1824 30003MPS 9999 NSC BECMG 1801/1803 20003MPS SCT030

Observações e previsões do tempo de mais de 4000 aeroportos (mensagens METAR e TAF).

As estações disponíveis são os pontos amarelos e vermelhos sobre o mapa.

Mova o rato sobre o mapa para ver o nome da estação.

Depois clique no ponto para visualizar as observações e previsões meteorológicas.

Para alterar o mapa : clique nos botões verdes com uma cruz preta para aumentar o zoom; no botão verde com uma pitada de zoom; ou nas setas verdes para mapas adjacentes.


METAR-TAF: